Time;durP1;ratioP1;P1;durP2;ratioP2;P2;SDS_P1;SDS_P2;PMS_P1;PMS_P2;Temp;Humidity;BMP_temperature;BMP_pressure;BME280_temperature;BME280_humidity;BME280_pressure;Samples;Min_cycle;Max_cycle;Signal;HPM_P1;HPM_P2
2021/07/20 00:02:20;;;;;;;2.70;2.60;;;13.00;96.40;;;;;;5075550;28;20043;-60
2021/07/20 00:04:47;;;;;;;2.90;2.70;;;13.10;96.00;;;;;;5076547;28;20112;-59
2021/07/20 00:07:14;;;;;;;2.38;2.28;;;13.00;95.00;;;;;;5076488;28;20017;-59
2021/07/20 00:09:42;;;;;;;2.78;2.60;;;12.90;95.20;;;;;;5076466;28;20065;-59
2021/07/20 00:12:10;;;;;;;2.88;2.78;;;13.20;96.30;;;;;;5076449;28;20050;-60
2021/07/20 00:14:37;;;;;;;2.50;2.40;;;13.20;94.80;;;;;;5076502;28;20032;-59
2021/07/20 00:17:05;;;;;;;2.60;2.40;;;13.20;95.10;;;;;;5076330;28;20480;-59
2021/07/20 00:19:33;;;;;;;2.50;2.40;;;13.40;95.10;;;;;;5076305;28;20027;-59
2021/07/20 00:22:00;;;;;;;2.60;2.50;;;13.30;94.30;;;;;;5076143;28;20060;-58
2021/07/20 00:24:27;;;;;;;2.75;2.50;;;13.30;94.80;;;;;;5076294;28;20021;-59
2021/07/20 00:26:54;;;;;;;2.70;2.50;;;13.50;94.60;;;;;;5076150;28;20019;-60
2021/07/20 00:29:22;;;;;;;2.40;2.30;;;13.50;94.30;;;;;;5076000;28;20032;-59
2021/07/20 00:31:49;;;;;;;2.60;2.30;;;13.60;94.10;;;;;;5076206;28;20051;-59
2021/07/20 00:34:16;;;;;;;3.50;2.20;;;13.70;93.30;;;;;;5075987;28;20101;-59
2021/07/20 00:36:44;;;;;;;2.33;2.22;;;13.80;93.60;;;;;;5075962;28;20025;-59
2021/07/20 00:39:11;;;;;;;2.20;2.10;;;13.90;93.70;;;;;;5076160;28;20381;-60
2021/07/20 00:41:38;;;;;;;2.40;2.28;;;14.10;94.20;;;;;;5076070;28;20028;-62
2021/07/20 00:44:07;;;;;;;2.08;1.88;;;14.30;93.70;;;;;;5076027;28;20017;-60
2021/07/20 00:46:34;;;;;;;2.15;2.00;;;14.20;93.10;;;;;;5075919;28;20020;-60
2021/07/20 00:49:01;;;;;;;2.20;2.10;;;14.10;93.50;;;;;;5074529;28;20024;-59
2021/07/20 00:51:29;;;;;;;2.33;2.22;;;13.90;93.40;;;;;;5075699;28;20385;-59
2021/07/20 00:53:56;;;;;;;2.47;2.38;;;14.10;92.90;;;;;;5075617;28;20533;-64
2021/07/20 00:56:24;;;;;;;2.22;2.13;;;14.20;93.30;;;;;;5075762;28;20055;-65
2021/07/20 00:58:51;;;;;;;2.60;2.40;;;14.50;92.80;;;;;;5075721;28;20214;-65
2021/07/20 01:01:19;;;;;;;2.30;2.20;;;14.70;93.20;;;;;;5075437;28;20024;-64
2021/07/20 01:03:46;;;;;;;2.60;2.40;;;14.80;92.60;;;;;;5074810;28;20350;-64
2021/07/20 01:06:14;;;;;;;2.42;2.30;;;14.40;91.90;;;;;;5075492;28;20065;-65
2021/07/20 01:08:42;;;;;;;2.45;2.30;;;14.70;91.80;;;;;;5075375;28;20365;-63
2021/07/20 01:11:09;;;;;;;2.40;2.20;;;14.60;92.10;;;;;;5075238;28;20021;-63
2021/07/20 01:13:38;;;;;;;1.73;1.70;;;14.80;91.80;;;;;;5075375;28;20025;-63
2021/07/20 01:16:06;;;;;;;1.95;1.85;;;14.80;91.00;;;;;;5075381;28;20099;-64
2021/07/20 01:18:35;;;;;;;1.88;1.80;;;15.00;91.40;;;;;;5075274;28;20031;-63
2021/07/20 01:21:02;;;;;;;2.13;2.03;;;14.90;90.60;;;;;;5075139;28;20031;-63
2021/07/20 01:23:45;;;;;;;2.60;2.40;;;14.90;91.20;;;;;;5075095;28;20023;-63
2021/07/20 01:26:13;;;;;;;2.25;2.05;;;15.10;90.60;;;;;;5075346;28;20020;-62
2021/07/20 01:28:42;;;;;;;2.45;2.35;;;15.00;90.40;;;;;;5073783;28;20027;-62
2021/07/20 01:31:19;;;;;;;2.30;2.20;;;14.90;91.10;;;;;;5075104;28;20028;-62
2021/07/20 01:33:49;;;;;;;2.10;2.00;;;14.90;90.90;;;;;;5074895;28;20056;-63
2021/07/20 01:36:18;;;;;;;1.90;1.80;;;15.00;90.10;;;;;;5074905;28;20024;-62
2021/07/20 01:38:47;;;;;;;2.38;2.20;;;15.00;90.50;;;;;;5074876;28;20027;-63
2021/07/20 01:41:17;;;;;;;2.00;1.90;;;15.10;90.10;;;;;;5074748;28;20032;-63
2021/07/20 01:43:49;;;;;;;2.03;1.95;;;14.90;90.20;;;;;;5074931;28;20048;-62
2021/07/20 01:46:18;;;;;;;2.10;2.00;;;14.90;90.20;;;;;;5074797;28;20019;-63
2021/07/20 01:48:47;;;;;;;2.00;1.90;;;15.00;90.30;;;;;;5074788;28;20055;-61
2021/07/20 01:51:15;;;;;;;2.25;2.13;;;15.10;90.10;;;;;;5074723;28;20570;-62
2021/07/20 01:53:43;;;;;;;1.80;1.80;;;15.20;90.10;;;;;;5074669;28;20059;-61
2021/07/20 01:56:12;;;;;;;2.08;1.98;;;15.30;90.00;;;;;;5074479;28;20508;-67
2021/07/20 01:58:44;;;;;;;2.38;2.00;;;15.00;90.10;;;;;;5074587;28;20039;-62
2021/07/20 02:01:23;;;;;;;2.22;2.13;;;15.00;90.30;;;;;;5074501;28;20029;-60
2021/07/20 02:04:12;;;;;;;2.50;2.40;;;15.10;90.30;;;;;;5074479;28;20031;-62
2021/07/20 02:09:30;;;;;;;2.20;2.10;;;15.00;90.60;;;;;;5074506;28;20027;-60
2021/07/20 02:11:59;;;;;;;2.20;2.10;;;14.90;90.60;;;;;;5074712;28;20017;-61
2021/07/20 02:14:31;;;;;;;2.92;2.67;;;15.10;90.70;;;;;;5073351;28;20040;-60
2021/07/20 02:17:02;;;;;;;3.03;2.20;;;15.00;90.60;;;;;;5074486;28;20127;-61
2021/07/20 02:19:51;;;;;;;2.53;2.33;;;15.10;90.60;;;;;;5074240;28;20024;-60
2021/07/20 02:22:22;;;;;;;2.08;1.98;;;15.20;90.70;;;;;;5074186;28;20021;-61
2021/07/20 02:24:50;;;;;;;;;;;15.00;90.70;;;;;;5073249;28;20033;-61
2021/07/20 02:27:20;;;;;;;2.90;1.95;;;15.00;90.70;;;;;;5072639;28;19999;-61
2021/07/20 02:29:49;;;;;;;2.20;2.10;;;15.10;90.70;;;;;;5073971;28;20039;-61
2021/07/20 02:32:18;;;;;;;2.30;2.20;;;15.10;91.00;;;;;;5073916;28;20024;-62
2021/07/20 02:34:46;;;;;;;2.35;1.90;;;15.10;91.20;;;;;;5073786;28;20055;-63
2021/07/20 02:37:14;;;;;;;1.98;1.88;;;15.20;91.00;;;;;;5073805;28;20174;-62
2021/07/20 02:39:44;;;;;;;2.00;1.90;;;15.30;90.90;;;;;;5073744;28;20024;-61
2021/07/20 02:42:12;;;;;;;2.50;2.40;;;15.10;91.00;;;;;;5073572;28;20024;-61
2021/07/20 02:44:40;;;;;;;2.20;2.10;;;15.00;91.00;;;;;;5073677;28;20017;-61
2021/07/20 02:47:08;;;;;;;1.80;1.80;;;15.00;91.20;;;;;;5073582;28;20025;-60
2021/07/20 02:49:39;;;;;;;2.10;1.90;;;15.10;91.40;;;;;;5073649;28;20023;-61
2021/07/20 02:52:08;;;;;;;2.28;2.10;;;15.30;91.00;;;;;;5073773;28;20112;-61
2021/07/20 02:54:35;;;;;;;1.80;1.70;;;15.40;91.10;;;;;;5073461;28;20034;-60
2021/07/20 02:57:05;;;;;;;1.95;1.70;;;15.30;91.10;;;;;;5073059;28;20058;-67
2021/07/20 02:59:35;;;;;;;1.90;1.80;;;15.00;91.20;;;;;;5073376;28;20033;-66
2021/07/20 03:02:04;;;;;;;2.25;2.05;;;14.90;91.30;;;;;;5073294;28;20040;-62
2021/07/20 03:04:34;;;;;;;1.80;1.70;;;15.00;91.90;;;;;;5071734;28;20044;-63
2021/07/20 03:07:05;;;;;;;2.05;1.77;;;15.00;91.70;;;;;;5073220;28;20366;-64
2021/07/20 03:09:34;;;;;;;2.00;1.90;;;15.10;91.90;;;;;;5073314;28;20012;-63
2021/07/20 03:12:11;;;;;;;1.85;1.75;;;15.10;91.70;;;;;;5073283;28;20484;-63
2021/07/20 03:14:39;;;;;;;2.20;1.67;;;15.10;91.90;;;;;;5073257;28;20043;-60
2021/07/20 03:17:09;;;;;;;2.00;1.90;;;15.00;92.10;;;;;;5073139;28;20074;-61
2021/07/20 03:19:38;;;;;;;2.00;1.90;;;14.90;91.80;;;;;;5073027;28;20414;-61
2021/07/20 03:22:13;;;;;;;1.80;1.80;;;14.80;91.90;;;;;;5072917;28;20028;-59
2021/07/20 03:24:43;;;;;;;1.98;1.88;;;14.70;92.30;;;;;;5073120;28;20025;-59
2021/07/20 03:27:11;;;;;;;4.47;2.10;;;14.70;92.00;;;;;;5073066;28;20031;-60
2021/07/20 03:29:44;;;;;;;1.98;1.88;;;14.80;92.40;;;;;;5073122;28;20051;-61
2021/07/20 03:32:21;;;;;;;2.22;2.10;;;14.80;92.80;;;;;;5072979;28;20121;-63
2021/07/20 03:34:49;;;;;;;2.30;2.20;;;14.70;92.90;;;;;;5073072;28;20107;-62
2021/07/20 03:37:17;;;;;;;2.85;2.20;;;14.70;93.80;;;;;;5072755;28;20031;-63
2021/07/20 03:39:45;;;;;;;2.10;2.00;;;14.60;93.40;;;;;;5072864;28;20499;-64
2021/07/20 03:42:13;;;;;;;2.55;2.33;;;14.50;94.00;;;;;;5072651;28;20115;-59
2021/07/20 03:44:41;;;;;;;2.20;2.00;;;14.40;93.80;;;;;;5072840;28;20052;-60
2021/07/20 03:47:10;;;;;;;2.10;2.00;;;14.30;94.00;;;;;;5072852;28;20024;-61
2021/07/20 03:49:39;;;;;;;2.00;1.90;;;14.30;94.10;;;;;;5073013;28;20091;-60
2021/07/20 03:52:07;;;;;;;1.80;1.70;;;14.30;94.30;;;;;;5072747;28;20051;-58
2021/07/20 03:54:34;;;;;;;1.90;1.80;;;14.30;93.70;;;;;;5072725;28;20030;-62
2021/07/20 03:57:03;;;;;;;2.72;2.15;;;14.20;94.10;;;;;;5072213;28;20048;-60
2021/07/20 03:59:34;;;;;;;1.90;1.80;;;14.30;93.90;;;;;;5072816;28;20126;-57
2021/07/20 04:02:04;;;;;;;1.90;1.80;;;14.20;94.00;;;;;;5072577;28;20112;-58
2021/07/20 04:04:37;;;;;;;1.80;1.80;;;14.20;94.10;;;;;;5072345;28;20490;-57
2021/07/20 04:07:07;;;;;;;3.83;2.20;;;14.20;94.30;;;;;;5072444;28;20481;-55
2021/07/20 04:09:38;;;;;;;2.25;2.15;;;14.20;94.40;;;;;;5072705;28;20099;-55
2021/07/20 04:12:07;;;;;;;2.20;2.10;;;14.10;94.50;;;;;;5072578;28;20043;-58
2021/07/20 04:14:36;;;;;;;2.00;1.90;;;14.10;94.80;;;;;;5072710;28;20024;-58
2021/07/20 04:17:04;;;;;;;2.58;2.38;;;14.20;94.80;;;;;;5072691;28;20047;-56
2021/07/20 04:19:33;;;;;;;2.72;2.10;;;14.10;94.70;;;;;;5072449;28;20020;-57
2021/07/20 04:22:01;;;;;;;2.28;2.17;;;14.10;95.00;;;;;;5073738;28;20025;-61
2021/07/20 04:24:29;;;;;;;2.00;1.90;;;14.10;94.70;;;;;;5072548;28;20083;-60
2021/07/20 04:26:57;;;;;;;2.20;2.10;;;14.00;94.80;;;;;;5072366;28;20451;-61
2021/07/20 04:29:26;;;;;;;2.30;2.20;;;14.10;94.80;;;;;;5072310;28;20016;-61
2021/07/20 04:31:55;;;;;;;2.10;2.00;;;14.10;94.60;;;;;;5071120;28;20033;-61
2021/07/20 04:34:23;;;;;;;1.95;1.85;;;14.20;94.80;;;;;;5072218;28;20028;-60
2021/07/20 04:36:52;;;;;;;2.10;2.00;;;14.10;94.70;;;;;;5072427;28;20485;-62
2021/07/20 04:39:19;;;;;;;2.00;1.90;;;14.20;94.70;;;;;;5075549;28;20048;-61
2021/07/20 04:41:48;;;;;;;4.40;2.00;;;14.20;94.80;;;;;;5075949;28;20020;-61
2021/07/20 04:44:16;;;;;;;3.05;2.10;;;14.10;94.30;;;;;;5076979;28;20028;-60
2021/07/20 04:46:47;;;;;;;2.00;2.00;;;14.10;94.50;;;;;;5075808;28;20070;-60
2021/07/20 04:49:15;;;;;;;2.30;2.20;;;14.10;94.50;;;;;;5075841;28;20073;-61
2021/07/20 04:51:45;;;;;;;2.20;2.10;;;14.10;94.90;;;;;;5075802;28;20106;-59
2021/07/20 04:54:16;;;;;;;3.17;2.40;;;14.00;94.80;;;;;;5075778;28;20021;-59
2021/07/20 04:56:45;;;;;;;2.10;2.00;;;14.00;94.90;;;;;;5075667;28;20052;-59
2021/07/20 04:59:12;;;;;;;2.85;2.45;;;14.00;95.30;;;;;;5075765;28;20104;-60
2021/07/20 05:01:45;;;;;;;2.50;2.30;;;14.00;95.30;;;;;;5075714;28;20495;-59
2021/07/20 05:04:13;;;;;;;2.42;2.20;;;13.90;95.00;;;;;;5075682;28;20101;-60
2021/07/20 05:06:40;;;;;;;2.10;2.00;;;13.90;95.20;;;;;;5075628;28;20115;-62
2021/07/20 05:09:10;;;;;;;2.30;2.20;;;14.00;95.30;;;;;;5075474;28;20469;-62
2021/07/20 05:11:37;;;;;;;2.30;2.20;;;13.90;95.30;;;;;;5075427;28;20055;-59
2021/07/20 05:14:05;;;;;;;2.50;2.33;;;13.90;95.60;;;;;;5075433;28;20532;-60
2021/07/20 05:16:34;;;;;;;2.30;2.20;;;13.90;95.70;;;;;;5075518;28;20032;-61
2021/07/20 05:19:03;;;;;;;2.30;2.20;;;13.80;95.90;;;;;;5075270;28;20038;-60
2021/07/20 05:21:31;;;;;;;2.22;2.10;;;13.80;96.10;;;;;;5075143;28;20028;-60
2021/07/20 05:23:59;;;;;;;2.33;2.20;;;13.80;96.10;;;;;;5075351;28;20025;-60
2021/07/20 05:26:27;;;;;;;2.50;2.30;;;13.70;96.10;;;;;;5075203;28;20030;-58
2021/07/20 05:28:55;;;;;;;2.25;2.10;;;13.70;96.10;;;;;;5075080;28;20390;-59
2021/07/20 05:31:25;;;;;;;2.33;2.20;;;13.70;96.60;;;;;;5075190;28;20107;-59
2021/07/20 05:33:52;;;;;;;2.20;2.10;;;13.70;96.20;;;;;;5075189;28;20024;-59
2021/07/20 05:36:20;;;;;;;2.30;2.10;;;13.70;96.10;;;;;;5075125;28;20024;-59
2021/07/20 05:38:48;;;;;;;2.40;2.20;;;13.80;96.30;;;;;;5075026;28;20469;-60
2021/07/20 05:41:16;;;;;;;2.20;2.10;;;14.00;96.00;;;;;;5075056;28;20031;-59
2021/07/20 05:43:45;;;;;;;2.30;2.20;;;14.10;96.10;;;;;;5074960;28;20385;-61
2021/07/20 05:46:13;;;;;;;2.47;2.20;;;14.20;95.60;;;;;;5074931;28;20073;-60
2021/07/20 05:48:42;;;;;;;2.30;2.15;;;14.20;95.40;;;;;;5074168;28;20040;-60
2021/07/20 05:51:11;;;;;;;2.00;1.90;;;14.10;95.40;;;;;;5074016;28;20035;-60
2021/07/20 05:53:39;;;;;;;2.20;1.95;;;14.10;95.60;;;;;;5074835;28;20024;-60
2021/07/20 05:56:08;;;;;;;2.08;2.03;;;14.00;95.60;;;;;;5074371;28;20078;-61
2021/07/20 05:58:37;;;;;;;2.30;2.20;;;14.00;96.00;;;;;;5074530;28;20109;-60
2021/07/20 06:01:08;;;;;;;2.30;2.20;;;14.00;95.70;;;;;;5074495;28;20032;-61
2021/07/20 06:03:36;;;;;;;2.60;2.40;;;14.00;95.80;;;;;;5074315;28;20020;-61
2021/07/20 06:06:04;;;;;;;2.60;2.50;;;14.00;96.10;;;;;;5074327;28;20397;-61
2021/07/20 06:08:33;;;;;;;2.80;2.60;;;14.00;96.30;;;;;;5074404;28;20362;-60
2021/07/20 06:11:05;;;;;;;2.40;2.30;;;14.00;96.00;;;;;;5074293;28;20416;-60
2021/07/20 06:13:37;;;;;;;2.60;2.40;;;14.00;96.20;;;;;;5074437;28;20031;-60
2021/07/20 06:16:07;;;;;;;2.67;2.47;;;14.00;96.40;;;;;;5074141;28;20048;-60
2021/07/20 06:18:36;;;;;;;2.95;2.75;;;14.00;96.20;;;;;;5073964;28;20031;-59
2021/07/20 06:21:07;;;;;;;3.00;2.80;;;14.00;97.20;;;;;;5073980;28;20048;-59
2021/07/20 06:23:40;;;;;;;2.65;2.55;;;14.00;96.80;;;;;;5074044;28;20051;-60
2021/07/20 06:26:09;;;;;;;2.42;2.33;;;14.00;96.20;;;;;;5073631;28;20070;-60
2021/07/20 06:28:38;;;;;;;2.70;2.50;;;14.10;96.70;;;;;;5073639;28;20017;-59
2021/07/20 06:31:06;;;;;;;2.10;2.00;;;14.00;96.50;;;;;;5073738;28;20480;-59
2021/07/20 06:33:35;;;;;;;2.45;2.30;;;14.00;97.00;;;;;;5073702;28;20361;-60
2021/07/20 06:36:03;;;;;;;2.30;2.20;;;13.90;97.20;;;;;;5073520;28;20031;-60
2021/07/20 06:38:32;;;;;;;2.38;2.28;;;13.80;96.90;;;;;;5073823;28;20480;-60
2021/07/20 06:41:00;;;;;;;2.67;2.47;;;13.80;97.30;;;;;;5073527;28;20156;-60
2021/07/20 06:43:31;;;;;;;2.72;2.53;;;13.80;97.50;;;;;;5073688;28;20027;-60
2021/07/20 06:45:59;;;;;;;2.50;2.40;;;13.70;97.70;;;;;;5074081;28;20015;-61
2021/07/20 06:48:27;;;;;;;2.92;2.42;;;13.70;97.70;;;;;;5073703;28;20431;-61
2021/07/20 06:50:55;;;;;;;2.20;2.10;;;13.60;97.60;;;;;;5073530;28;20016;-60
2021/07/20 06:53:23;;;;;;;2.03;1.90;;;13.60;97.90;;;;;;5073660;28;20392;-60
2021/07/20 06:55:57;;;;;;;2.50;2.40;;;13.60;97.90;;;;;;5072900;28;20072;-60
2021/07/20 06:58:26;;;;;;;2.65;2.30;;;13.50;97.70;;;;;;5073446;28;20017;-59
2021/07/20 07:00:59;;;;;;;2.70;2.60;;;13.50;97.70;;;;;;5072717;28;20055;-59
2021/07/20 07:03:39;;;;;;;2.80;2.70;;;13.40;98.00;;;;;;5073202;28;20392;-59
2021/07/20 07:06:08;;;;;;;2.47;2.38;;;13.40;97.90;;;;;;5073459;28;20017;-59
2021/07/20 07:08:36;;;;;;;2.38;2.28;;;13.40;97.70;;;;;;5073259;28;20542;-59
2021/07/20 07:11:04;;;;;;;2.40;2.30;;;13.40;98.10;;;;;;5073113;28;20028;-60
2021/07/20 07:13:35;;;;;;;2.45;2.35;;;13.30;98.40;;;;;;5073064;28;20103;-60
2021/07/20 07:16:04;;;;;;;2.47;2.20;;;13.30;98.40;;;;;;5073224;28;20021;-60
2021/07/20 07:18:32;;;;;;;2.80;2.70;;;13.30;98.30;;;;;;5072887;28;20020;-60
2021/07/20 07:21:01;;;;;;;2.83;2.63;;;13.30;98.40;;;;;;5071797;28;20025;-60
2021/07/20 07:23:31;;;;;;;3.28;2.97;;;13.30;98.00;;;;;;5073034;28;20048;-60
2021/07/20 07:26:01;;;;;;;3.88;3.58;;;13.40;97.80;;;;;;5073007;28;20021;-60
2021/07/20 07:28:29;;;;;;;3.92;3.70;;;13.30;97.90;;;;;;5072924;28;20024;-59
2021/07/20 07:30:57;;;;;;;3.40;3.20;;;13.30;98.00;;;;;;5072930;28;20392;-61
2021/07/20 07:33:25;;;;;;;3.08;2.88;;;13.40;98.20;;;;;;5073214;28;20025;-61
2021/07/20 07:35:53;;;;;;;2.65;2.45;;;13.30;98.30;;;;;;5072786;28;20195;-60
2021/07/20 07:38:22;;;;;;;3.05;2.85;;;13.20;98.80;;;;;;5072875;28;20099;-60
2021/07/20 07:40:56;;;;;;;3.00;2.80;;;13.20;98.60;;;;;;5072731;28;20032;-61
2021/07/20 07:43:27;;;;;;;3.00;2.78;;;13.10;98.70;;;;;;5072757;28;20021;-59
2021/07/20 07:45:57;;;;;;;2.60;2.50;;;13.10;98.80;;;;;;5072734;28;20023;-59
2021/07/20 07:48:29;;;;;;;2.88;2.70;;;13.10;99.10;;;;;;5072791;28;20047;-60
2021/07/20 07:50:58;;;;;;;2.60;2.47;;;13.00;99.10;;;;;;5072559;28;20063;-59
2021/07/20 07:53:26;;;;;;;2.78;2.58;;;13.10;98.50;;;;;;5072592;28;20393;-59
2021/07/20 07:55:54;;;;;;;3.00;2.72;;;13.10;98.80;;;;;;5072367;28;20127;-60
2021/07/20 07:58:28;;;;;;;3.30;3.00;;;13.00;98.80;;;;;;5072626;28;20033;-59
2021/07/20 08:01:01;;;;;;;3.13;2.92;;;13.00;99.60;;;;;;5072306;28;20040;-58
2021/07/20 08:03:30;;;;;;;3.20;3.00;;;13.00;99.50;;;;;;5072454;28;20020;-58
2021/07/20 08:05:59;;;;;;;4.47;3.50;;;13.00;99.90;;;;;;5072807;28;20393;-60
2021/07/20 08:08:29;;;;;;;3.05;2.85;;;12.90;99.40;;;;;;5071378;28;20024;-60
2021/07/20 08:10:58;;;;;;;3.00;2.80;;;12.90;99.30;;;;;;5072534;28;20154;-59
2021/07/20 08:13:26;;;;;;;3.30;3.00;;;12.90;99.50;;;;;;5074528;28;20048;-60
2021/07/20 08:15:55;;;;;;;3.33;3.10;;;12.90;99.50;;;;;;5076587;28;20420;-60
2021/07/20 08:18:24;;;;;;;3.83;3.30;;;12.90;99.40;;;;;;5076535;28;20034;-60
2021/07/20 08:21:02;;;;;;;3.10;2.88;;;12.80;99.80;;;;;;5076355;28;20085;-61
2021/07/20 08:23:30;;;;;;;3.50;3.22;;;12.70;99.80;;;;;;5076366;28;20024;-61
2021/07/20 08:26:06;;;;;;;3.10;2.90;;;12.70;99.90;;;;;;5076300;28;20046;-61
2021/07/20 08:28:51;;;;;;;3.58;3.30;;;12.60;99.90;;;;;;5074863;28;20554;-60
2021/07/20 08:31:19;;;;;;;3.70;3.40;;;12.60;99.80;;;;;;5076780;28;20041;-62
2021/07/20 08:33:49;;;;;;;3.38;3.17;;;12.70;99.80;;;;;;5079399;28;20074;-62
2021/07/20 08:36:18;;;;;;;3.08;2.88;;;12.70;99.30;;;;;;5077209;28;20025;-62
2021/07/20 08:38:48;;;;;;;3.30;3.10;;;12.80;99.30;;;;;;5079140;28;20074;-62
2021/07/20 08:41:24;;;;;;;3.50;3.30;;;12.70;99.30;;;;;;5078333;28;20052;-61
2021/07/20 08:44:12;;;;;;;3.80;3.50;;;12.80;99.90;;;;;;5079277;28;20031;-60
2021/07/20 08:47:19;;;;;;;3.70;3.40;;;12.70;99.40;;;;;;5078271;28;20016;-60
2021/07/20 08:50:20;;;;;;;3.90;3.70;;;12.70;99.90;;;;;;5035411;28;20026;-61
2021/07/20 08:53:11;;;;;;;4.32;3.92;;;12.50;99.90;;;;;;5077788;28;20047;-60
2021/07/20 08:55:44;;;;;;;4.18;3.88;;;12.50;99.90;;;;;;5054675;28;20454;-61
2021/07/20 08:58:32;;;;;;;4.22;3.83;;;12.30;99.90;;;;;;5075837;28;20036;-62
2021/07/20 09:01:17;;;;;;;4.00;3.70;;;12.20;99.90;;;;;;5075634;28;20035;-62
2021/07/20 09:03:55;;;;;;;4.05;3.75;;;12.10;99.90;;;;;;5075489;28;20027;-61
2021/07/20 09:06:36;;;;;;;4.13;3.72;;;12.10;99.90;;;;;;5075576;28;20032;-60
2021/07/20 09:09:08;;;;;;;4.25;3.85;;;12.10;99.90;;;;;;5075779;28;20024;-60
2021/07/20 09:11:46;;;;;;;4.30;4.00;;;12.00;99.90;;;;;;5075487;28;20028;-61
2021/07/20 09:14:37;;;;;;;4.00;3.65;;;12.00;99.90;;;;;;5075537;28;20047;-61
2021/07/20 09:17:23;;;;;;;4.03;3.70;;;12.00;99.90;;;;;;5075392;28;20020;-61
2021/07/20 09:20:01;;;;;;;4.30;3.90;;;12.00;99.90;;;;;;5075326;28;20020;-61
2021/07/20 09:22:49;;;;;;;3.78;3.47;;;11.90;99.90;;;;;;5075228;28;20036;-60
2021/07/20 09:25:32;;;;;;;3.80;3.60;;;11.90;99.90;;;;;;5074733;28;20473;-60
2021/07/20 09:28:18;;;;;;;3.60;3.40;;;11.90;99.90;;;;;;5075199;28;20123;-64
2021/07/20 09:30:49;;;;;;;3.72;3.47;;;11.80;99.90;;;;;;5076304;28;20476;-61
2021/07/20 09:33:39;;;;;;;4.40;4.10;;;11.90;99.90;;;;;;5074685;28;20028;-61
2021/07/20 09:36:28;;;;;;;4.57;4.20;;;11.70;99.90;;;;;;5074928;28;20099;-62
2021/07/20 09:39:11;;;;;;;4.35;4.05;;;11.80;99.90;;;;;;5075042;28;20090;-61
2021/07/20 09:41:51;;;;;;;4.35;4.05;;;11.70;99.90;;;;;;5074754;28;20086;-62
2021/07/20 09:44:21;;;;;;;;;;;11.60;99.90;;;;;;5075429;28;20020;-58
2021/07/20 09:47:08;;;;;;;4.88;4.40;;;11.50;99.90;;;;;;5074854;28;20364;-56
2021/07/20 09:49:59;;;;;;;4.65;4.35;;;11.60;99.90;;;;;;5074892;28;20046;-57
2021/07/20 09:52:47;;;;;;;4.55;4.20;;;11.50;99.90;;;;;;5074593;28;20024;-58
2021/07/20 09:55:20;;;;;;;5.07;4.68;;;11.60;99.90;;;;;;5074555;28;20028;-58
2021/07/20 09:58:29;;;;;;;4.28;3.83;;;11.60;99.90;;;;;;5074265;28;20067;-57
2021/07/20 10:01:06;;;;;;;3.70;3.40;;;11.70;99.90;;;;;;5060343;28;20435;-59
2021/07/20 10:03:49;;;;;;;3.83;3.60;;;11.80;99.90;;;;;;5074314;28;20020;-59
2021/07/20 10:06:28;;;;;;;3.70;3.50;;;11.80;99.90;;;;;;5074375;28;20027;-55
2021/07/20 10:09:03;;;;;;;3.90;3.60;;;11.80;99.90;;;;;;5074190;28;20079;-59
2021/07/20 10:11:52;;;;;;;4.03;3.80;;;11.70;99.90;;;;;;5074275;28;20021;-59
2021/07/20 10:14:59;;;;;;;3.75;3.55;;;11.70;99.90;;;;;;5074159;28;20024;-61
2021/07/20 10:17:35;;;;;;;3.90;3.70;;;11.70;99.90;;;;;;5074048;28;20032;-60
2021/07/20 10:20:13;;;;;;;3.88;3.63;;;11.70;99.90;;;;;;5074108;28;20043;-61
2021/07/20 10:23:12;;;;;;;3.88;3.67;;;11.70;99.90;;;;;;5074052;28;20028;-60
2021/07/20 10:26:02;;;;;;;3.95;3.67;;;11.60;99.90;;;;;;5070432;28;20032;-60
2021/07/20 10:28:51;;;;;;;3.70;3.50;;;11.50;99.90;;;;;;5073877;28;20017;-59
2021/07/20 10:31:54;;;;;;;4.20;3.72;;;11.50;99.90;;;;;;5073947;28;20055;-60
2021/07/20 10:34:26;;;;;;;3.50;3.30;;;11.40;99.90;;;;;;5072030;28;20040;-60
2021/07/20 10:37:10;;;;;;;3.90;3.60;;;11.40;99.90;;;;;;5073058;28;20052;-60
2021/07/20 10:39:59;;;;;;;3.60;3.40;;;11.50;99.90;;;;;;5073756;28;20024;-60
2021/07/20 10:42:26;;;;;;;4.03;3.72;;;11.40;99.90;;;;;;5073481;28;20392;-61
2021/07/20 10:45:06;;;;;;;3.85;3.50;;;11.40;99.90;;;;;;5073643;28;20024;-59
2021/07/20 10:47:58;;;;;;;3.95;3.65;;;11.40;99.90;;;;;;5073519;28;20031;-59
2021/07/20 10:50:49;;;;;;;3.80;3.50;;;11.40;99.90;;;;;;5073414;28;20020;-60
2021/07/20 10:53:58;;;;;;;3.40;3.20;;;11.40;99.90;;;;;;5073404;28;20104;-60
2021/07/20 10:56:51;;;;;;;3.78;3.47;;;11.40;99.90;;;;;;5011511;28;20069;-59
2021/07/20 10:59:37;;;;;;;3.53;3.28;;;11.40;99.90;;;;;;5005417;28;20085;-58
2021/07/20 11:02:17;;;;;;;3.30;3.10;;;11.40;99.90;;;;;;5059990;28;20071;-58
2021/07/20 11:04:56;;;;;;;3.10;3.00;;;11.50;99.90;;;;;;5073271;28;20066;-60
2021/07/20 11:07:46;;;;;;;3.58;3.33;;;11.60;99.90;;;;;;5073137;28;20024;-59
2021/07/20 11:10:49;;;;;;;3.78;3.47;;;11.50;99.90;;;;;;5073169;28;20025;-59
2021/07/20 11:13:37;;;;;;;3.97;3.67;;;11.60;99.90;;;;;;5071293;28;20427;-60
2021/07/20 11:16:08;;;;;;;3.35;3.17;;;11.60;99.90;;;;;;5073159;28;20024;-60
2021/07/20 11:18:39;;;;;;;3.50;3.40;;;11.60;99.90;;;;;;5071724;28;20012;-59
2021/07/20 11:21:09;;;;;;;3.30;3.13;;;11.60;99.90;;;;;;5072969;28;20083;-59
2021/07/20 11:23:43;;;;;;;3.55;3.40;;;11.60;99.90;;;;;;5071608;28;20017;-59
2021/07/20 11:26:12;;;;;;;3.30;3.10;;;11.60;99.90;;;;;;5073182;28;20047;-59
2021/07/20 11:28:43;;;;;;;3.60;3.40;;;11.60;99.90;;;;;;5072909;28;20024;-60
2021/07/20 11:31:32;;;;;;;3.10;3.00;;;11.60;99.90;;;;;;5072950;28;20448;-58
2021/07/20 11:34:22;;;;;;;3.10;3.00;;;11.60;99.90;;;;;;5072441;28;20043;-60
2021/07/20 11:36:51;;;;;;;3.35;3.25;;;11.60;99.90;;;;;;5072836;28;20020;-60
2021/07/20 11:39:25;;;;;;;3.50;3.40;;;11.70;99.90;;;;;;5072693;28;20546;-59
2021/07/20 11:41:56;;;;;;;3.50;3.30;;;11.60;99.90;;;;;;5072922;28;20108;-60
2021/07/20 11:44:33;;;;;;;3.40;3.30;;;11.70;99.90;;;;;;5072912;28;20385;-60
2021/07/20 11:47:34;;;;;;;3.35;3.25;;;11.70;99.90;;;;;;5072614;28;20025;-59
2021/07/20 11:50:21;;;;;;;3.80;3.60;;;11.70;99.90;;;;;;5072715;28;20012;-59
2021/07/20 11:53:04;;;;;;;3.00;2.90;;;11.70;99.90;;;;;;5065577;28;20037;-60
2021/07/20 11:55:46;;;;;;;3.60;3.40;;;11.70;99.90;;;;;;5072661;28;20424;-61
2021/07/20 11:58:26;;;;;;;3.70;3.60;;;11.60;99.90;;;;;;5072565;28;20029;-60
2021/07/20 12:01:24;;;;;;;4.03;3.72;;;11.50;99.90;;;;;;5072386;28;20028;-59
2021/07/20 12:04:28;;;;;;;4.20;4.00;;;11.30;99.90;;;;;;5072248;28;20127;-60
2021/07/20 12:07:49;;;;;;;4.22;4.00;;;11.20;99.90;;;;;;5072580;28;20043;-59
2021/07/20 12:10:50;;;;;;;5.00;4.70;;;11.10;99.90;;;;;;5030685;28;20045;-60
2021/07/20 12:13:20;;;;;;;5.20;5.00;;;11.10;99.90;;;;;;5071025;28;20106;-59
2021/07/20 12:15:52;;;;;;;5.25;4.95;;;11.00;99.90;;;;;;5072386;28;20050;-59
2021/07/20 12:18:23;;;;;;;4.90;4.70;;;11.10;99.90;;;;;;5072281;28;20016;-59
2021/07/20 12:20:51;;;;;;;;;;;11.10;99.90;;;;;;5072809;28;20020;-60
2021/07/20 12:23:18;;;;;;;5.20;4.90;;;11.00;99.90;;;;;;5072161;28;20264;-58
2021/07/20 12:25:46;;;;;;;5.30;5.10;;;11.00;99.90;;;;;;5072288;28;20487;-59
2021/07/20 12:28:14;;;;;;;6.00;5.80;;;10.80;99.90;;;;;;5072314;28;20158;-59
2021/07/20 12:30:41;;;;;;;5.90;5.70;;;10.70;99.90;;;;;;5072443;28;20027;-58
2021/07/20 12:33:15;;;;;;;5.90;5.60;;;10.60;99.90;;;;;;5072140;28;20099;-59
2021/07/20 12:35:49;;;;;;;5.90;5.70;;;10.50;99.90;;;;;;5072308;28;20038;-60
2021/07/20 12:38:26;;;;;;;5.63;5.43;;;10.40;99.90;;;;;;5072087;28;20032;-59
2021/07/20 12:41:15;;;;;;;5.75;5.55;;;10.40;99.90;;;;;;5072385;28;20029;-60
2021/07/20 12:43:44;;;;;;;5.50;5.20;;;10.40;99.90;;;;;;5072209;28;20484;-60
2021/07/20 12:46:19;;;;;;;5.30;5.00;;;10.50;99.90;;;;;;5072281;28;20614;-61
2021/07/20 12:48:53;;;;;;;5.40;5.10;;;10.50;99.90;;;;;;5070934;28;20017;-59
2021/07/20 12:51:23;;;;;;;5.53;5.22;;;10.50;99.90;;;;;;5072290;28;20025;-59
2021/07/20 12:53:53;;;;;;;5.40;5.20;;;10.50;99.90;;;;;;5072193;28;20016;-59
2021/07/20 12:56:22;;;;;;;5.13;4.80;;;10.50;99.90;;;;;;5071855;28;20509;-60
2021/07/20 12:58:56;;;;;;;4.88;4.57;;;10.60;99.90;;;;;;5072850;28;20029;-59
2021/07/20 13:01:25;;;;;;;4.55;4.35;;;10.80;99.90;;;;;;5075700;28;20485;-59
2021/07/20 13:03:52;;;;;;;4.63;4.32;;;10.90;99.90;;;;;;5075542;28;20419;-58
2021/07/20 13:06:21;;;;;;;5.00;4.70;;;10.80;99.90;;;;;;5075698;28;20039;-60
2021/07/20 13:08:52;;;;;;;4.78;4.57;;;10.80;99.90;;;;;;5075781;28;20031;-60
2021/07/20 13:11:21;;;;;;;4.63;4.43;;;10.80;99.90;;;;;;5076805;28;20598;-60
2021/07/20 13:13:49;;;;;;;5.20;5.00;;;10.70;99.90;;;;;;5075526;28;20021;-60
2021/07/20 13:16:21;;;;;;;4.90;4.70;;;10.80;99.90;;;;;;5075374;28;20063;-61
2021/07/20 13:19:07;;;;;;;5.10;4.80;;;10.70;99.90;;;;;;5075373;28;20107;-60
2021/07/20 13:21:43;;;;;;;4.60;4.40;;;10.70;99.90;;;;;;5075255;28;20032;-60
2021/07/20 13:24:10;;;;;;;4.40;4.20;;;10.70;99.90;;;;;;5075256;28;20028;-60